Albion, Ohio
Current Conditions -  °F | °C
As of 2:56 AM on Thursday 29 Jan 2015 (Local Time) from KBJJ Reporting Station
Overcast Overcast  
Wind Chill: 12°   Ceiling: 10000
Heat Index: 24°   Visibility: 10mi
Dew Point: 15°   Wind: 14mph
Humidity: 69%   Direction: 150°SSE
Pressure: 30.09"   Gusts: NA
Location:  40.9441°N, 82.1006°W
Report Text: KBJJ 290756Z AUTO 15012KT 10SM OVC100 M04/M09 A3009 RMK AO2 PRESFR SLP207 T10441094 TSNO
Loading
Personal Weather Stations






























Interactive Weather Map New forecast layout! Learn more

10-Day Weather Forecast

Advertisements
Track Severe Weather on mobile